This is the latest recevied weather packets stored in our database for station/object KI6PPU. If no packets are shown the sender has not sent any weather packets the latest 10 day(s).
| Time | Temp. | Humidity | Pressure | Rain* | Wind** | Luminosity | Snow |
|---|---|---|---|---|---|---|---|
| 1777833055 | 15° C | 75% | 1015.5 hPa | 0 mm | - | 548 W/m² | - |
| 1777832753 | 15° C | 77% | 1015.4 hPa | 0 mm | - | 323 W/m² | - |
| 1777832451 | 15° C | 77% | 1015.5 hPa | 0 mm | - | 360 W/m² | - |
| 1777832148 | 15° C | 76% | 1015.2 hPa | 0 mm | - | 331 W/m² | - |
| 1777831844 | 15° C | 77% | 1015.2 hPa | 0 mm | - | 345 W/m² | - |
| 1777831541 | 15° C | 76% | 1015 hPa | 0 mm | - | 440 W/m² | - |
| 1777831238 | 15° C | 78% | 1015.3 hPa | 0 mm | - | 586 W/m² | - |
| 1777830936 | 13.89° C | 79% | 1015.3 hPa | 0 mm | - | 362 W/m² | - |
| 1777830633 | 13.89° C | 79% | 1015.4 hPa | 0 mm | - | 182 W/m² | - |
| 1777830330 | 14.44° C | 77% | 1015.3 hPa | 0 mm | - | 323 W/m² | - |
| 1777830026 | 14.44° C | 79% | 1015.5 hPa | 0 mm | - | 327 W/m² | - |
| 1777829721 | 15° C | 78% | 1015.4 hPa | 0 mm | - | 436 W/m² | - |
| 1777829418 | 15° C | 77% | 1015.2 hPa | 0 mm | - | 307 W/m² | - |
| 1777829116 | 14.44° C | 77% | 1015 hPa | 0 mm | - | 689 W/m² | - |
| 1777828812 | 13.89° C | 80% | 1015.3 hPa | 0 mm | - | 258 W/m² | - |
| 1777828509 | 13.33° C | 80% | 1014.9 hPa | 0 mm | - | 250 W/m² | - |
| 1777828207 | 13.33° C | 80% | 1014.8 hPa | 0 mm | - | 257 W/m² | - |
| 1777827903 | 13.89° C | 81% | 1014.9 hPa | 0 mm | - | 324 W/m² | - |
| 1777827600 | 13.33° C | 82% | 1014.8 hPa | 0 mm | - | 491 W/m² | - |
| 1777827297 | 12.22° C | 83% | 1014.7 hPa | 0 mm | - | 100 W/m² | - |
| 1777826994 | 12.22° C | 85% | 1015.3 hPa | 0 mm | - | 64 W/m² | - |
| 1777826691 | 12.78° C | 85% | 1015.2 hPa | 0 mm | - | 69 W/m² | - |
| 1777826387 | 12.78° C | 84% | 1015 hPa | 0 mm | - | 79 W/m² | - |
| 1777826085 | 12.78° C | 83% | 1014.8 hPa | 0 mm | - | 150 W/m² | - |
| 1777825781 | 12.78° C | 83% | 1014.8 hPa | 0 mm | - | 135 W/m² | - |
* Rain latest hour (hover to see other rain measurements)
** Current wind speed in m/s (hover to see current wind gust speed)